Time;durP1;ratioP1;P1;durP2;ratioP2;P2;SDS_P1;SDS_P2;PMS_P1;PMS_P2;Temp;Humidity;BMP_temperature;BMP_pressure;BME280_temperature;BME280_humidity;BME280_pressure;Samples;Min_cycle;Max_cycle;Signal;HPM_P1;HPM_P2
2023/01/30 00:00:53;;;;;;;5.28;2.10;;;7.00;99.90;;;;;;4940131;28;20027;-74
2023/01/30 00:03:19;;;;;;;6.55;2.80;;;7.00;99.90;;;;;;4942646;28;20039;-75
2023/01/30 00:05:44;;;;;;;5.68;2.65;;;7.10;99.90;;;;;;4930265;29;20070;-75
2023/01/30 00:08:10;;;;;;;5.20;2.20;;;7.20;99.90;;;;;;4942984;28;20070;-75
2023/01/30 00:10:35;;;;;;;4.32;2.03;;;7.30;99.90;;;;;;4943173;29;20482;-75
2023/01/30 00:13:01;;;;;;;3.35;2.03;;;7.40;99.90;;;;;;4943993;28;20258;-75
2023/01/30 00:15:27;;;;;;;5.55;1.95;;;7.50;99.90;;;;;;4944713;28;20039;-75
2023/01/30 00:17:52;;;;;;;3.90;2.10;;;7.50;99.90;;;;;;4928101;29;20031;-75
2023/01/30 00:20:18;;;;;;;4.25;1.80;;;7.60;99.90;;;;;;4940403;28;20043;-75
2023/01/30 00:22:43;;;;;;;3.60;1.67;;;7.60;99.90;;;;;;4939981;28;20110;-75
2023/01/30 00:25:09;;;;;;;6.15;1.75;;;7.60;99.90;;;;;;4942353;28;20499;-75
2023/01/30 00:27:35;;;;;;;4.25;1.50;;;7.60;99.90;;;;;;4931054;28;20608;-75
2023/01/30 00:30:03;;;;;;;5.43;1.63;;;7.70;99.90;;;;;;4927795;28;20831;-75
2023/01/30 00:32:28;;;;;;;2.10;1.30;;;7.70;99.90;;;;;;4941445;28;20035;-75
2023/01/30 00:34:54;;;;;;;4.43;1.63;;;7.70;99.90;;;;;;4933004;29;20083;-75
2023/01/30 00:37:20;;;;;;;2.85;1.40;;;7.70;99.90;;;;;;4916428;29;20431;-75
2023/01/30 00:39:45;;;;;;;2.17;1.38;;;7.60;99.90;;;;;;4943338;28;20039;-75
2023/01/30 00:47:39;;;;;;;3.13;1.40;;;7.30;99.90;;;;;;4943754;29;20053;-74
2023/01/30 00:50:05;;;;;;;2.55;1.05;;;7.00;99.90;;;;;;4941767;29;20039;-75
2023/01/30 00:52:30;;;;;;;3.80;1.17;;;6.90;99.90;;;;;;4939370;28;20581;-76
2023/01/30 00:54:56;;;;;;;2.55;1.38;;;6.80;99.90;;;;;;4924594;29;20090;-75
2023/01/30 00:57:21;;;;;;;2.42;1.23;;;6.70;99.90;;;;;;4942842;28;20138;-74
2023/01/30 00:59:47;;;;;;;2.72;1.77;;;6.70;99.90;;;;;;4941855;28;20229;-75
2023/01/30 01:02:13;;;;;;;3.72;1.10;;;6.70;99.90;;;;;;4942942;29;20042;-75
2023/01/30 01:04:44;;;;;;;1.92;1.00;;;6.80;99.90;;;;;;4940771;28;20126;-75
2023/01/30 01:07:13;;;;;;;2.83;1.20;;;6.90;99.90;;;;;;4926419;28;20061;-75
2023/01/30 01:09:39;;;;;;;5.68;1.30;;;7.00;99.90;;;;;;4943132;28;20439;-75
2023/01/30 01:12:06;;;;;;;2.13;1.42;;;7.20;99.90;;;;;;4925265;29;20090;-75
2023/01/30 01:14:31;;;;;;;5.10;1.67;;;7.30;99.90;;;;;;4943227;28;20522;-75
2023/01/30 01:16:57;;;;;;;1.85;1.30;;;7.30;99.90;;;;;;4939605;29;20118;-75
2023/01/30 01:19:23;;;;;;;5.80;1.73;;;7.40;99.90;;;;;;4924488;29;20455;-75
2023/01/30 01:21:48;;;;;;;2.88;1.85;;;7.50;99.90;;;;;;4942457;28;20079;-76
2023/01/30 01:24:15;;;;;;;5.18;2.00;;;7.50;99.90;;;;;;4942495;28;20046;-75
2023/01/30 01:26:41;;;;;;;3.20;1.40;;;7.50;99.90;;;;;;4941450;29;20506;-76
2023/01/30 01:29:11;;;;;;;2.30;1.40;;;7.40;99.90;;;;;;4923021;29;20380;-75
2023/01/30 01:31:37;;;;;;;3.10;1.20;;;7.30;99.90;;;;;;4921569;29;20031;-75
2023/01/30 01:34:02;;;;;;;3.80;1.38;;;7.20;99.90;;;;;;4942962;28;20561;-74
2023/01/30 01:36:28;;;;;;;2.97;1.20;;;7.20;99.90;;;;;;4942460;29;20141;-75
2023/01/30 01:38:54;;;;;;;5.18;1.60;;;7.10;99.90;;;;;;4942116;28;20032;-75
2023/01/30 01:41:19;;;;;;;2.65;1.38;;;7.00;99.90;;;;;;4923107;29;20035;-75
2023/01/30 01:44:07;;;;;;;4.65;1.50;;;7.00;99.90;;;;;;4942026;28;20031;-76
2023/01/30 01:46:47;;;;;;;4.18;1.63;;;7.10;99.90;;;;;;4923390;29;20102;-75
2023/01/30 01:49:23;;;;;;;3.90;1.77;;;7.10;99.90;;;;;;4938249;28;20402;-75
2023/01/30 01:52:06;;;;;;;4.55;1.45;;;7.20;99.90;;;;;;4929456;28;20188;-75
2023/01/30 01:54:39;;;;;;;6.60;1.40;;;7.40;99.90;;;;;;4931097;29;20034;-75
2023/01/30 01:57:11;;;;;;;4.78;1.60;;;7.40;99.90;;;;;;4942651;28;20027;-75
2023/01/30 01:59:45;;;;;;;3.78;1.77;;;7.50;99.90;;;;;;4941609;28;20133;-74
2023/01/30 02:02:13;;;;;;;3.72;1.50;;;7.50;99.90;;;;;;4941168;28;20050;-76
2023/01/30 02:07:34;;;;;;;5.03;1.60;;;7.60;99.90;;;;;;4927486;29;20446;-74
2023/01/30 02:10:00;;;;;;;2.88;1.52;;;7.60;99.90;;;;;;4931380;29;20071;-75
2023/01/30 02:12:26;;;;;;;3.95;1.63;;;7.60;99.90;;;;;;4942672;28;20035;-76
2023/01/30 02:14:52;;;;;;;3.97;1.83;;;7.60;99.90;;;;;;4942544;28;20070;-75
2023/01/30 02:17:19;;;;;;;6.38;2.10;;;7.50;99.90;;;;;;4946862;29;20035;-75
2023/01/30 02:19:59;;;;;;;7.38;2.63;;;7.50;99.90;;;;;;4929530;29;20034;-75
2023/01/30 02:22:43;;;;;;;7.35;1.88;;;7.40;99.90;;;;;;4929843;28;20035;-75
2023/01/30 02:25:43;;;;;;;3.28;2.00;;;7.30;99.90;;;;;;4928533;29;20515;-75
2023/01/30 02:28:38;;;;;;;4.97;2.10;;;7.30;99.90;;;;;;4946890;28;20027;-75
2023/01/30 02:31:28;;;;;;;5.50;2.20;;;7.30;99.90;;;;;;4895001;28;20312;-74
2023/01/30 02:34:23;;;;;;;5.32;2.03;;;7.30;99.90;;;;;;4915500;29;20078;-75
2023/01/30 02:37:19;;;;;;;2.97;1.90;;;7.30;99.90;;;;;;4923654;29;20116;-74
2023/01/30 02:39:51;;;;;;;6.15;2.00;;;7.20;99.90;;;;;;4927828;29;20034;-75
2023/01/30 02:42:45;;;;;;;2.72;1.80;;;7.10;99.90;;;;;;4943260;28;20181;-75
2023/01/30 02:45:11;;;;;;;5.25;2.35;;;7.00;99.90;;;;;;4921951;29;20147;-76
2023/01/30 02:47:52;;;;;;;5.75;2.40;;;6.80;99.90;;;;;;4944541;28;20110;-75
2023/01/30 02:50:37;;;;;;;4.72;2.50;;;6.70;99.90;;;;;;4941666;29;20038;-75
2023/01/30 02:53:06;;;;;;;8.07;2.83;;;6.70;99.90;;;;;;4936944;29;20046;-74
2023/01/30 02:55:32;;;;;;;8.20;3.50;;;6.60;99.90;;;;;;4940088;28;20482;-75
2023/01/30 02:57:59;;;;;;;3.70;2.25;;;6.60;99.90;;;;;;4939778;28;20090;-75
2023/01/30 03:00:52;;;;;;;5.43;2.70;;;6.50;99.90;;;;;;4935367;28;20030;-76
2023/01/30 03:03:37;;;;;;;6.18;2.97;;;6.50;99.90;;;;;;4932484;29;20496;-75
2023/01/30 03:06:24;;;;;;;6.43;2.33;;;6.40;99.90;;;;;;4939468;28;20039;-75
2023/01/30 03:09:28;;;;;;;4.00;2.30;;;6.30;99.90;;;;;;4938461;28;20450;-75
2023/01/30 03:12:12;;;;;;;8.23;2.58;;;6.40;99.90;;;;;;4896352;29;20046;-75
2023/01/30 03:15:09;;;;;;;6.65;2.42;;;6.30;99.90;;;;;;4936803;29;20035;-75
2023/01/30 03:17:37;;;;;;;5.95;2.35;;;6.30;99.90;;;;;;4910448;29;20035;-75
2023/01/30 03:20:03;;;;;;;9.82;2.53;;;6.30;99.90;;;;;;4938138;28;20035;-74
2023/01/30 03:22:29;;;;;;;6.15;2.35;;;6.30;99.90;;;;;;4937689;29;20074;-75
2023/01/30 03:24:55;;;;;;;6.57;2.47;;;6.20;99.90;;;;;;4931087;29;20039;-75
2023/01/30 03:27:21;;;;;;;9.38;2.88;;;6.10;99.90;;;;;;4936050;28;20027;-75
2023/01/30 03:29:47;;;;;;;5.40;2.30;;;6.10;99.90;;;;;;4938128;29;20049;-75
2023/01/30 03:32:12;;;;;;;9.32;2.95;;;6.20;99.90;;;;;;4925265;29;20040;-76
2023/01/30 03:34:38;;;;;;;5.47;2.47;;;6.30;99.90;;;;;;4938303;29;20045;-75
2023/01/30 03:37:04;;;;;;;9.45;3.00;;;6.40;99.90;;;;;;4932572;28;20036;-75
2023/01/30 03:39:30;;;;;;;6.45;1.98;;;6.60;99.90;;;;;;4935680;29;20041;-76
2023/01/30 03:41:56;;;;;;;5.25;2.58;;;6.70;99.90;;;;;;4939437;28;20031;-76
2023/01/30 03:44:21;;;;;;;6.55;2.40;;;6.80;99.90;;;;;;4938894;28;20641;-73
2023/01/30 03:46:47;;;;;;;8.25;2.20;;;7.00;99.90;;;;;;4938752;29;20047;-76
2023/01/30 03:49:12;;;;;;;4.25;1.65;;;7.10;99.90;;;;;;4934418;29;20046;-76
2023/01/30 03:51:38;;;;;;;6.53;2.08;;;7.20;99.90;;;;;;4941036;28;20138;-72
2023/01/30 03:54:04;;;;;;;5.57;1.73;;;7.30;99.90;;;;;;4939829;29;20035;-75
2023/01/30 03:56:30;;;;;;;5.18;1.58;;;7.30;99.90;;;;;;4941485;28;20064;-76
2023/01/30 03:58:55;;;;;;;7.70;1.75;;;7.40;99.90;;;;;;4939457;29;20026;-76
2023/01/30 04:01:21;;;;;;;2.95;1.50;;;7.50;99.90;;;;;;4939974;29;20074;-76
2023/01/30 04:03:47;;;;;;;5.80;2.00;;;7.50;99.90;;;;;;4884306;28;1113971;-76
2023/01/30 04:06:13;;;;;;;9.15;1.60;;;7.60;99.90;;;;;;4939462;28;20665;-75
2023/01/30 04:08:38;;;;;;;5.50;1.52;;;7.60;99.90;;;;;;4921392;29;20044;-77
2023/01/30 04:11:04;;;;;;;6.20;1.75;;;7.60;99.90;;;;;;4939205;28;20053;-75
2023/01/30 04:13:29;;;;;;;3.97;1.65;;;7.50;99.90;;;;;;4932551;28;20599;-75
2023/01/30 04:16:15;;;;;;;9.00;2.22;;;7.60;99.90;;;;;;4921453;29;20038;-76
2023/01/30 04:18:40;;;;;;;3.05;1.30;;;7.50;99.90;;;;;;4939609;28;20083;-76
2023/01/30 04:21:06;;;;;;;4.03;1.48;;;7.50;99.90;;;;;;4937511;29;20419;-75
2023/01/30 04:23:31;;;;;;;5.35;1.35;;;7.50;99.90;;;;;;4938858;29;20058;-74
2023/01/30 04:25:57;;;;;;;5.93;1.35;;;7.40;99.90;;;;;;4913209;29;20094;-75
2023/01/30 04:28:23;;;;;;;6.15;1.60;;;7.40;99.90;;;;;;4928994;29;20530;-73
2023/01/30 04:30:48;;;;;;;4.00;1.38;;;7.30;99.90;;;;;;4939414;29;20050;-76
2023/01/30 04:33:14;;;;;;;3.42;1.20;;;7.20;99.90;;;;;;4925889;29;20114;-75
2023/01/30 04:35:39;;;;;;;4.07;1.40;;;7.20;99.90;;;;;;4939109;29;20031;-75
2023/01/30 04:38:05;;;;;;;4.43;1.33;;;7.10;99.90;;;;;;4930984;29;20134;-75
2023/01/30 04:40:31;;;;;;;4.50;1.20;;;7.00;99.90;;;;;;4933291;28;20024;-75
2023/01/30 04:42:56;;;;;;;2.88;1.20;;;6.90;99.90;;;;;;4938464;28;20031;-75
2023/01/30 04:45:22;;;;;;;4.00;1.25;;;6.90;99.90;;;;;;4937820;28;20049;-75
2023/01/30 04:47:48;;;;;;;3.75;1.08;;;6.90;99.90;;;;;;4937862;29;20039;-75
2023/01/30 04:50:13;;;;;;;8.25;1.20;;;6.90;99.90;;;;;;4939186;28;20134;-75
2023/01/30 04:52:39;;;;;;;3.30;1.40;;;6.90;99.90;;;;;;4939185;28;20552;-75
2023/01/30 04:55:05;;;;;;;7.57;1.55;;;7.00;99.90;;;;;;4938816;28;20314;-75
2023/01/30 04:57:31;;;;;;;4.30;1.55;;;7.10;99.90;;;;;;4920726;29;20066;-74
2023/01/30 04:59:56;;;;;;;5.13;1.52;;;7.20;99.90;;;;;;4925921;29;20499;-75
2023/01/30 05:02:22;;;;;;;6.82;1.60;;;7.20;99.90;;;;;;4922242;29;20143;-76
2023/01/30 05:04:49;;;;;;;3.97;1.50;;;7.30;99.90;;;;;;4929484;28;20380;-75
2023/01/30 05:07:15;;;;;;;3.50;1.73;;;7.40;99.90;;;;;;4938667;28;20019;-76
2023/01/30 05:09:40;;;;;;;3.65;2.25;;;7.50;99.90;;;;;;4938288;29;20486;-75
2023/01/30 05:12:06;;;;;;;9.25;2.20;;;7.50;99.90;;;;;;4938059;29;20038;-75
2023/01/30 05:14:31;;;;;;;2.78;1.65;;;7.50;99.90;;;;;;4929945;28;20443;-74
2023/01/30 05:16:57;;;;;;;4.82;1.98;;;7.40;99.90;;;;;;4902815;29;20118;-74
2023/01/30 05:19:23;;;;;;;4.07;1.83;;;7.40;99.90;;;;;;4919109;29;20031;-75
2023/01/30 05:21:48;;;;;;;6.40;2.60;;;7.20;99.90;;;;;;4929481;28;20079;-75
2023/01/30 05:24:14;;;;;;;6.00;2.70;;;7.10;99.90;;;;;;4937655;28;20035;-75
2023/01/30 05:26:39;;;;;;;14.27;3.75;;;7.00;99.90;;;;;;4930615;29;20035;-75
2023/01/30 05:29:05;;;;;;;10.40;3.78;;;6.90;99.90;;;;;;4939475;29;20082;-75
2023/01/30 05:31:31;;;;;;;12.10;4.90;;;6.90;99.90;;;;;;4938575;29;20034;-75
2023/01/30 05:33:56;;;;;;;10.73;5.38;;;6.90;99.90;;;;;;4919901;29;20294;-74
2023/01/30 05:36:23;;;;;;;9.75;5.78;;;7.00;99.90;;;;;;4922462;28;20038;-74
2023/01/30 05:38:49;;;;;;;16.70;7.80;;;7.00;99.90;;;;;;4920563;29;20055;-75
2023/01/30 05:41:15;;;;;;;14.02;7.53;;;7.00;99.90;;;;;;4939768;29;20074;-75
2023/01/30 05:43:41;;;;;;;14.10;6.60;;;7.10;99.90;;;;;;4933620;29;20505;-75
2023/01/30 05:46:09;;;;;;;8.27;4.70;;;7.10;99.90;;;;;;4942093;28;20098;-74
2023/01/30 05:48:34;;;;;;;10.25;3.88;;;7.10;99.90;;;;;;4942386;28;20134;-75
2023/01/30 05:51:00;;;;;;;12.93;3.50;;;7.00;99.90;;;;;;4943759;28;20214;-75
2023/01/30 05:53:28;;;;;;;7.30;1.65;;;6.90;99.90;;;;;;4943889;29;20089;-75
2023/01/30 05:55:59;;;;;;;3.45;1.38;;;6.90;99.90;;;;;;4944805;29;20032;-74
2023/01/30 05:58:25;;;;;;;2.40;1.15;;;6.80;99.90;;;;;;4944500;29;20054;-75
2023/01/30 06:00:52;;;;;;;8.68;2.10;;;6.70;99.90;;;;;;4927453;29;20043;-76
2023/01/30 06:03:18;;;;;;;6.57;1.70;;;6.70;99.90;;;;;;4928113;28;20360;-75
2023/01/30 06:05:43;;;;;;;5.05;1.70;;;6.60;99.90;;;;;;4945637;28;20494;-75
2023/01/30 06:08:09;;;;;;;5.65;1.90;;;6.60;99.90;;;;;;4944828;28;20046;-74
2023/01/30 06:10:35;;;;;;;5.07;1.40;;;6.50;99.90;;;;;;4927322;29;20262;-75
2023/01/30 06:13:01;;;;;;;8.77;1.85;;;6.50;99.90;;;;;;4924819;29;20427;-75
2023/01/30 06:15:26;;;;;;;5.88;1.60;;;6.40;99.90;;;;;;4927886;29;20573;-75
2023/01/30 06:17:52;;;;;;;4.90;1.27;;;6.50;99.90;;;;;;4945301;28;20384;-75
2023/01/30 06:20:18;;;;;;;5.57;1.50;;;6.50;99.90;;;;;;4945349;29;20043;-75
2023/01/30 06:22:43;;;;;;;6.25;1.58;;;6.60;99.90;;;;;;4943856;28;20035;-74
2023/01/30 06:25:09;;;;;;;8.52;1.90;;;6.60;99.90;;;;;;4946057;28;20026;-74
2023/01/30 06:27:35;;;;;;;5.20;1.70;;;6.50;99.90;;;;;;4944041;28;20027;-75
2023/01/30 06:30:01;;;;;;;9.75;1.77;;;6.60;99.90;;;;;;4926878;29;20047;-74
2023/01/30 06:32:26;;;;;;;7.63;1.95;;;6.70;99.90;;;;;;4942396;28;20066;-75
2023/01/30 06:34:52;;;;;;;9.32;2.33;;;6.70;99.90;;;;;;4944491;28;20024;-75
2023/01/30 06:37:17;;;;;;;6.85;2.15;;;6.70;99.90;;;;;;4945113;29;20032;-76
2023/01/30 06:39:43;;;;;;;10.50;2.78;;;6.70;99.90;;;;;;4944288;28;20061;-75
2023/01/30 06:42:08;;;;;;;13.77;5.18;;;6.60;99.90;;;;;;4944113;28;20035;-74
2023/01/30 06:44:34;;;;;;;12.68;5.72;;;6.60;99.90;;;;;;4943981;28;20470;-75
2023/01/30 06:46:59;;;;;;;15.05;8.07;;;6.50;99.90;;;;;;4922150;29;20035;-74
2023/01/30 06:49:25;;;;;;;25.85;11.38;;;6.50;99.90;;;;;;4928036;29;20221;-75
2023/01/30 06:51:51;;;;;;;24.38;9.40;;;6.50;99.90;;;;;;4924821;29;20058;-75
2023/01/30 06:54:16;;;;;;;11.63;5.45;;;6.60;99.90;;;;;;4941802;29;20070;-75
2023/01/30 06:56:42;;;;;;;11.23;2.75;;;6.60;99.90;;;;;;4944509;29;20417;-75
2023/01/30 06:59:07;;;;;;;5.85;2.00;;;6.60;99.90;;;;;;4943491;28;20031;-75
2023/01/30 07:01:33;;;;;;;11.20;2.40;;;6.60;99.90;;;;;;4943068;28;20027;-75
2023/01/30 07:03:58;;;;;;;4.55;1.88;;;6.60;99.90;;;;;;4926665;29;20047;-75
2023/01/30 07:06:27;;;;;;;4.93;1.70;;;6.60;99.90;;;;;;4944256;28;20659;-75
2023/01/30 07:08:55;;;;;;;6.50;2.17;;;6.60;99.90;;;;;;4926696;29;20027;-75
2023/01/30 07:11:20;;;;;;;8.80;2.20;;;6.60;99.90;;;;;;4940329;29;20387;-74
2023/01/30 07:13:46;;;;;;;9.90;2.05;;;6.60;99.90;;;;;;4918261;29;20038;-75
2023/01/30 07:16:12;;;;;;;7.90;1.88;;;6.60;99.90;;;;;;4943388;28;20039;-75
2023/01/30 07:18:37;;;;;;;8.35;2.08;;;6.60;99.90;;;;;;4940925;29;20214;-74
2023/01/30 07:21:03;;;;;;;6.38;1.63;;;6.60;99.90;;;;;;4925893;29;20062;-75
2023/01/30 07:23:28;;;;;;;6.90;1.90;;;6.50;99.90;;;;;;4942926;28;20019;-75
2023/01/30 07:25:54;;;;;;;5.65;1.42;;;6.50;99.90;;;;;;4944948;29;20066;-75
2023/01/30 07:28:20;;;;;;;9.13;2.05;;;6.40;99.90;;;;;;4939388;29;20465;-75
2023/01/30 07:30:45;;;;;;;5.45;1.67;;;6.40;99.90;;;;;;4937908;29;20086;-75
2023/01/30 07:33:11;;;;;;;6.13;1.90;;;6.40;99.90;;;;;;4937735;28;20224;-75
2023/01/30 07:35:37;;;;;;;4.05;1.50;;;6.30;99.90;;;;;;4939398;28;20127;-75
2023/01/30 07:38:03;;;;;;;9.20;2.00;;;6.20;99.90;;;;;;4937063;29;20487;-75
2023/01/30 07:40:29;;;;;;;5.20;2.05;;;6.10;99.90;;;;;;4932214;28;20376;-75
2023/01/30 07:42:59;;;;;;;8.18;2.40;;;6.10;99.90;;;;;;4910450;29;20030;-74
2023/01/30 07:45:29;;;;;;;7.63;1.83;;;6.00;99.90;;;;;;4935405;28;20039;-75
2023/01/30 07:47:54;;;;;;;6.78;1.80;;;6.00;99.90;;;;;;4937262;28;20281;-74
2023/01/30 07:50:20;;;;;;;240.10;93.72;;;5.90;99.90;;;;;;4941207;29;20049;-75
2023/01/30 07:52:45;;;;;;;17.75;6.88;;;5.90;99.90;;;;;;4942965;29;20486;-75
2023/01/30 07:55:11;;;;;;;8.88;3.20;;;5.90;99.90;;;;;;4944640;28;20042;-75
2023/01/30 07:57:36;;;;;;;7.55;2.10;;;5.90;99.90;;;;;;4943530;28;20073;-75
2023/01/30 08:00:03;;;;;;;9.95;2.25;;;5.90;99.90;;;;;;4943306;29;20031;-76
2023/01/30 08:02:29;;;;;;;4.97;1.80;;;6.00;99.90;;;;;;4942946;28;20027;-75
2023/01/30 08:04:54;;;;;;;5.90;2.53;;;6.10;99.90;;;;;;4937160;28;20787;-75
2023/01/30 08:07:20;;;;;;;7.75;2.33;;;6.20;99.90;;;;;;4937237;28;20146;-74
2023/01/30 08:09:46;;;;;;;7.85;1.50;;;6.50;99.90;;;;;;4933896;28;20050;-75
2023/01/30 08:12:11;;;;;;;8.00;1.48;;;6.70;99.90;;;;;;4939464;28;20027;-75
2023/01/30 08:14:37;;;;;;;4.18;1.25;;;6.70;99.90;;;;;;4942586;28;20054;-75
2023/01/30 08:17:02;;;;;;;11.88;1.70;;;6.80;99.90;;;;;;4937927;28;20449;-75
2023/01/30 08:19:28;;;;;;;4.50;1.48;;;6.80;99.90;;;;;;4941935;28;20039;-75
2023/01/30 08:21:54;;;;;;;5.05;1.88;;;6.70;99.90;;;;;;4942646;28;20419;-72
2023/01/30 08:24:19;;;;;;;7.43;1.50;;;6.90;99.90;;;;;;4943004;28;20395;-74
2023/01/30 08:26:48;;;;;;;7.07;2.05;;;7.10;99.90;;;;;;4942172;28;20114;-75
2023/01/30 08:29:13;;;;;;;5.75;1.38;;;7.20;99.90;;;;;;4942538;28;20382;-75
2023/01/30 08:31:39;;;;;;;6.15;1.75;;;7.20;99.90;;;;;;4942323;29;20037;-75
2023/01/30 08:34:05;;;;;;;11.48;1.50;;;7.20;99.90;;;;;;4940336;28;20073;-75
2023/01/30 08:36:30;;;;;;;8.20;1.25;;;7.30;99.90;;;;;;4934852;29;20031;-74
2023/01/30 08:38:56;;;;;;;6.90;1.30;;;7.40;99.90;;;;;;4931905;29;20178;-75
2023/01/30 08:41:22;;;;;;;10.27;1.73;;;7.50;99.90;;;;;;4940521;28;20442;-75
2023/01/30 08:43:47;;;;;;;5.40;1.38;;;7.70;99.90;;;;;;4923245;29;20953;-75
2023/01/30 08:46:13;;;;;;;6.63;1.27;;;7.80;99.90;;;;;;4943180;29;20291;-75
2023/01/30 08:48:40;;;;;;;11.90;1.70;;;8.00;99.90;;;;;;4939957;28;20082;-75
2023/01/30 08:51:06;;;;;;;11.48;1.92;;;8.20;99.90;;;;;;4950043;23;20070;-71
2023/01/30 08:53:32;;;;;;;6.65;1.38;;;8.40;99.90;;;;;;4918666;29;20873;-71
2023/01/30 08:55:58;;;;;;;6.05;1.90;;;8.40;99.90;;;;;;4934229;29;20638;-71
2023/01/30 08:58:23;;;;;;;7.72;1.30;;;8.50;99.90;;;;;;4931952;29;20146;-71
2023/01/30 09:00:49;;;;;;;6.43;1.20;;;8.50;99.90;;;;;;4932066;29;20066;-72
2023/01/30 09:03:15;;;;;;;6.72;1.13;;;8.40;99.90;;;;;;4928930;29;20034;-72
2023/01/30 09:05:41;;;;;;;3.70;1.08;;;8.40;99.90;;;;;;4933890;28;20455;-72
2023/01/30 09:08:07;;;;;;;8.52;1.17;;;8.30;99.90;;;;;;4931597;29;20047;-72
2023/01/30 09:10:33;;;;;;;7.13;1.25;;;8.30;99.90;;;;;;4921929;29;20043;-72
2023/01/30 09:12:59;;;;;;;45.53;23.10;;;8.20;99.90;;;;;;4924810;29;20033;-72
2023/01/30 09:15:24;;;;;;;14.18;5.38;;;8.20;99.90;;;;;;4930496;28;20027;-72
2023/01/30 09:17:53;;;;;;;6.78;1.75;;;8.10;99.30;;;;;;4919108;29;20114;-72
2023/01/30 09:20:19;;;;;;;4.85;0.82;;;8.00;98.10;;;;;;4935163;28;20054;-72
2023/01/30 09:22:45;;;;;;;9.35;1.33;;;7.60;98.10;;;;;;4929389;28;20058;-72
2023/01/30 09:25:11;;;;;;;4.15;1.30;;;7.60;99.90;;;;;;4928762;28;20034;-72
2023/01/30 09:27:37;;;;;;;2.67;0.88;;;7.70;99.90;;;;;;4931405;28;20027;-72
2023/01/30 09:30:04;;;;;;;5.75;1.90;;;7.70;99.90;;;;;;4917771;28;20053;-72
2023/01/30 09:32:29;;;;;;;7.15;1.30;;;8.00;99.90;;;;;;4923956;28;20046;-72
2023/01/30 09:34:55;;;;;;;4.65;1.50;;;8.30;99.20;;;;;;4921645;29;20443;-72
2023/01/30 09:37:20;;;;;;;5.43;0.93;;;8.60;96.20;;;;;;4928596;28;20031;-72
2023/01/30 09:39:46;;;;;;;4.90;1.00;;;8.80;91.50;;;;;;4908605;29;20027;-72
2023/01/30 09:42:26;;;;;;;3.35;0.90;;;9.20;90.50;;;;;;4921520;29;20035;-72
2023/01/30 09:45:02;;;;;;;4.75;0.95;;;9.60;85.20;;;;;;4937996;28;20154;-72
2023/01/30 09:47:46;;;;;;;10.57;1.20;;;10.20;77.70;;;;;;4939371;29;20122;-72
2023/01/30 09:50:49;;;;;;;3.30;1.10;;;10.70;76.20;;;;;;4578851;28;10000340;-73
2023/01/30 09:54:01;;;;;;;4.63;0.93;;;11.80;70.60;;;;;;4932744;28;20102;-72
2023/01/30 09:56:27;;;;;;;7.97;1.45;;;13.50;61.20;;;;;;4852623;29;20040;-72
2023/01/30 09:59:00;;;;;;;3.65;1.10;;;13.90;58.90;;;;;;4922904;28;20063;-72
2023/01/30 10:01:54;;;;;;;6.13;1.30;;;14.40;58.10;;;;;;4928011;29;20039;-73
2023/01/30 10:04:34;;;;;;;9.45;1.60;;;14.80;56.00;;;;;;4914283;29;20031;-73
2023/01/30 10:07:05;;;;;;;9.45;2.10;;;15.10;54.60;;;;;;4926796;28;20121;-73
2023/01/30 10:09:40;;;;;;;;;;;15.40;55.00;;;;;;4923916;28;20027;-72
2023/01/30 10:12:18;;;;;;;5.75;1.50;;;15.70;53.30;;;;;;4923811;28;20444;-72
2023/01/30 10:15:05;;;;;;;7.03;1.50;;;15.10;52.20;;;;;;4924465;28;20400;-72
2023/01/30 10:17:37;;;;;;;9.00;1.33;;;15.20;52.40;;;;;;4937557;28;20031;-71
2023/01/30 10:20:15;;;;;;;9.15;1.50;;;14.90;52.80;;;;;;4936386;28;20042;-72
2023/01/30 10:23:01;;;;;;;10.13;1.60;;;14.60;52.80;;;;;;4919783;29;20382;-71
2023/01/30 10:25:48;;;;;;;7.10;1.50;;;14.40;52.40;;;;;;4931621;29;20046;-74
2023/01/30 10:28:16;;;;;;;9.63;2.00;;;14.90;54.40;;;;;;4945343;28;20358;-73
2023/01/30 10:30:46;;;;;;;7.68;1.27;;;16.20;52.10;;;;;;4934384;23;20123;-76
2023/01/30 10:33:22;;;;;;;7.50;1.30;;;17.20;47.40;;;;;;4897386;29;20106;-74
2023/01/30 10:36:00;;;;;;;4.22;1.40;;;17.60;46.40;;;;;;4896482;29;20031;-77
2023/01/30 10:38:46;;;;;;;7.57;1.63;;;18.00;46.70;;;;;;4905260;29;20038;-77
2023/01/30 10:41:24;;;;;;;7.47;1.60;;;18.50;43.50;;;;;;4896573;29;20054;-77
2023/01/30 10:44:04;;;;;;;5.07;1.20;;;18.70;45.00;;;;;;4914487;29;20119;-77
2023/01/30 10:46:35;;;;;;;8.15;1.58;;;19.30;42.30;;;;;;4897132;29;20040;-77
2023/01/30 10:49:05;;;;;;;7.45;1.95;;;20.30;39.80;;;;;;4907217;29;20094;-74
2023/01/30 10:51:49;;;;;;;5.53;1.40;;;21.60;37.60;;;;;;4915171;29;20506;-76
2023/01/30 10:54:25;;;;;;;10.07;1.70;;;22.60;34.90;;;;;;4897172;29;20040;-77
2023/01/30 10:57:01;;;;;;;5.95;1.38;;;22.60;36.20;;;;;;4919504;29;20035;-78
2023/01/30 10:59:29;;;;;;;7.63;1.65;;;22.60;34.90;;;;;;4904799;29;20090;-76
2023/01/30 11:01:58;;;;;;;6.32;1.60;;;22.50;34.50;;;;;;4590532;23;10002946;-80
2023/01/30 11:05:01;;;;;;;7.78;1.63;;;21.90;34.90;;;;;;4907670;29;20063;-81
2023/01/30 11:07:30;;;;;;;6.35;1.58;;;21.90;35.80;;;;;;4845268;29;20524;-81
2023/01/30 11:09:58;;;;;;;9.60;1.75;;;21.00;36.60;;;;;;4914817;28;20082;-81
2023/01/30 11:12:24;;;;;;;10.82;2.03;;;21.20;34.90;;;;;;4918473;29;20027;-80
2023/01/30 11:15:02;;;;;;;8.95;1.63;;;20.60;35.60;;;;;;4917542;29;20087;-81
2023/01/30 11:17:37;;;;;;;7.63;1.70;;;21.90;34.40;;;;;;4930586;29;20551;-80
2023/01/30 11:20:18;;;;;;;11.15;2.03;;;23.00;33.10;;;;;;4937892;29;20259;-80
2023/01/30 11:22:59;;;;;;;9.23;2.20;;;22.70;31.50;;;;;;4932642;29;20418;-81
2023/01/30 11:25:25;;;;;;;6.30;2.00;;;23.90;32.30;;;;;;4919747;29;20064;-81
2023/01/30 11:27:53;;;;;;;9.55;1.88;;;24.40;30.50;;;;;;4930163;29;20082;-81
2023/01/30 11:30:20;;;;;;;7.25;1.73;;;24.70;29.60;;;;;;4937843;29;20050;-81
2023/01/30 11:32:49;;;;;;;8.63;1.92;;;25.10;29.50;;;;;;4936709;28;20057;-81
2023/01/30 11:35:26;;;;;;;8.13;1.67;;;25.50;28.70;;;;;;4938507;29;20343;-82
2023/01/30 11:37:52;;;;;;;9.32;2.17;;;25.70;28.80;;;;;;4937026;29;20035;-82
2023/01/30 11:40:19;;;;;;;10.27;2.55;;;24.50;29.70;;;;;;4934356;29;20034;-81
2023/01/30 11:42:48;;;;;;;8.60;2.03;;;22.90;31.40;;;;;;4939617;29;20031;-82
2023/01/30 11:45:16;;;;;;;9.55;2.15;;;21.60;33.90;;;;;;4939562;29;20066;-81
2023/01/30 11:47:52;;;;;;;7.55;1.42;;;19.50;36.20;;;;;;4938450;28;20058;-81
2023/01/30 11:50:20;;;;;;;8.70;1.75;;;18.30;38.20;;;;;;4940077;29;20063;-81
2023/01/30 11:52:46;;;;;;;9.77;2.00;;;17.50;40.50;;;;;;4938494;29;20032;-82
2023/01/30 11:55:21;;;;;;;8.68;1.67;;;16.90;43.90;;;;;;4940919;28;20027;-81
2023/01/30 11:57:55;;;;;;;7.35;1.40;;;15.90;43.00;;;;;;4937952;29;20431;-82
2023/01/30 12:00:37;;;;;;;5.47;1.10;;;15.40;45.10;;;;;;4941658;29;20035;-82
2023/01/30 12:03:08;;;;;;;2.95;0.95;;;15.30;46.90;;;;;;4936345;28;20050;-82
2023/01/30 12:05:44;;;;;;;7.20;1.15;;;15.40;48.00;;;;;;4939032;28;20106;-83
2023/01/30 12:08:25;;;;;;;7.45;1.40;;;15.60;46.30;;;;;;4936912;29;20030;-83
2023/01/30 12:10:58;;;;;;;11.30;1.90;;;15.50;47.80;;;;;;4936454;29;20896;-82
2023/01/30 12:13:37;;;;;;;6.72;1.48;;;15.50;44.90;;;;;;4932491;29;20028;-83
2023/01/30 12:16:26;;;;;;;6.28;1.23;;;15.40;46.20;;;;;;4921936;29;20051;-82
2023/01/30 12:19:15;;;;;;;6.00;1.23;;;15.30;48.20;;;;;;4939260;29;20041;-83
2023/01/30 12:21:51;;;;;;;7.70;1.50;;;15.40;47.20;;;;;;4939856;28;20795;-81
2023/01/30 12:24:35;;;;;;;7.78;1.33;;;15.70;47.00;;;;;;4940349;28;20037;-81
2023/01/30 12:27:08;;;;;;;4.85;1.23;;;15.60;46.60;;;;;;4939242;29;20062;-81
2023/01/30 12:29:52;;;;;;;6.40;1.67;;;15.50;46.70;;;;;;4923037;29;20380;-81
2023/01/30 12:32:22;;;;;;;8.00;1.30;;;15.20;48.80;;;;;;4938157;28;20038;-81
2023/01/30 12:34:49;;;;;;;5.97;1.58;;;15.10;47.30;;;;;;4938749;29;20050;-81
2023/01/30 12:37:40;;;;;;;10.63;1.35;;;14.70;48.30;;;;;;4939910;29;20034;-81
2023/01/30 12:40:08;;;;;;;10.18;1.80;;;14.70;49.20;;;;;;4939464;28;20031;-81
2023/01/30 12:42:56;;;;;;;5.20;1.60;;;14.70;48.60;;;;;;4939427;28;20523;-80
2023/01/30 12:45:31;;;;;;;8.75;1.50;;;14.80;49.80;;;;;;4941957;29;20093;-81
2023/01/30 12:48:06;;;;;;;6.80;1.20;;;14.90;48.50;;;;;;4940963;29;20031;-81
2023/01/30 12:50:58;;;;;;;10.55;2.08;;;15.10;48.90;;;;;;4939469;29;20043;-81
2023/01/30 12:53:49;;;;;;;7.63;1.63;;;15.10;47.90;;;;;;4925501;29;20035;-80
2023/01/30 12:56:33;;;;;;;9.80;2.55;;;14.50;48.00;;;;;;4935829;29;20051;-80
2023/01/30 12:59:07;;;;;;;11.57;2.80;;;14.90;48.00;;;;;;4936296;28;20054;-80
2023/01/30 13:01:44;;;;;;;12.10;2.67;;;15.10;48.80;;;;;;4935869;28;20035;-81
2023/01/30 13:05:06;;;;;;;10.00;2.00;;;14.90;47.80;;;;;;4901463;29;20080;-80
2023/01/30 13:07:51;;;;;;;10.88;2.60;;;15.70;50.20;;;;;;4874957;29;20165;-81
2023/01/30 13:10:38;;;;;;;8.80;2.30;;;16.10;45.80;;;;;;4884089;29;20764;-81
2023/01/30 13:13:24;;;;;;;6.95;1.80;;;16.60;46.50;;;;;;4903422;29;20225;-81
2023/01/30 13:16:24;;;;;;;8.65;1.80;;;16.50;45.00;;;;;;4898394;29;20056;-81
2023/01/30 13:19:12;;;;;;;8.98;1.83;;;16.30;43.70;;;;;;4899294;29;20088;-81